Time;durP1;ratioP1;P1;durP2;ratioP2;P2;SDS_P1;SDS_P2;PMS_P1;PMS_P2;Temp;Humidity;BMP_temperature;BMP_pressure;BME280_temperature;BME280_humidity;BME280_pressure;Samples;Min_cycle;Max_cycle;Signal;HPM_P1;HPM_P2
2022/10/09 00:00:33;;;;;;;;;;;9.80;99.90;;;;;;3059868;19;19928;-71
2022/10/09 00:01:34;;;;;;;;;;;8.90;99.90;;;;;;3059407;19;19915;-71
2022/10/09 00:02:37;;;;;;;;;;;9.80;99.90;;;;;;3059466;19;19918;-71
2022/10/09 00:03:39;;;;;;;;;;;9.50;99.90;;;;;;3059731;19;19915;-72
2022/10/09 00:04:43;;;;;;;;;;;8.90;99.90;;;;;;3059417;19;19927;-72
2022/10/09 00:05:44;;;;;;;;;;;8.70;99.90;;;;;;3059605;19;19918;-71
2022/10/09 00:06:48;;;;;;;;;;;8.80;99.90;;;;;;3059537;19;19915;-71
2022/10/09 00:07:49;;;;;;;;;;;8.90;99.90;;;;;;3059481;19;19932;-71
2022/10/09 00:08:53;;;;;;;;;;;8.70;99.90;;;;;;3059262;19;19930;-71
2022/10/09 00:09:54;;;;;;;;;;;8.60;99.90;;;;;;3059441;19;19914;-71
2022/10/09 00:10:58;;;;;;;;;;;8.70;99.90;;;;;;3059374;19;19915;-71
2022/10/09 00:11:59;;;;;;;;;;;8.70;99.90;;;;;;3059502;19;19914;-71
2022/10/09 00:13:03;;;;;;;;;;;8.70;99.90;;;;;;3058782;19;19918;-71
2022/10/09 00:14:04;;;;;;;;;;;8.60;99.90;;;;;;3059441;19;19922;-71
2022/10/09 00:15:11;;;;;;;;;;;8.60;99.90;;;;;;3059166;19;19939;-71
2022/10/09 00:16:12;;;;;;;;;;;8.50;99.90;;;;;;3058753;19;19939;-71
2022/10/09 00:17:16;;;;;;;;;;;8.40;99.90;;;;;;3059185;19;20513;-71
2022/10/09 00:18:17;;;;;;;;;;;8.40;99.90;;;;;;3059262;19;20006;-71
2022/10/09 00:19:21;;;;;;;;;;;8.90;99.90;;;;;;3059145;19;19922;-70
2022/10/09 00:20:22;;;;;;;;;;;8.30;99.90;;;;;;3059376;19;20256;-71
2022/10/09 00:21:27;;;;;;;;;;;8.50;99.90;;;;;;3059132;19;19910;-71
2022/10/09 00:22:28;;;;;;;;;;;8.30;99.90;;;;;;3059198;19;19935;-71
2022/10/09 00:23:32;;;;;;;;;;;8.30;99.90;;;;;;3058990;19;19918;-71
2022/10/09 00:24:33;;;;;;;;;;;8.40;99.90;;;;;;3059371;19;19919;-71
2022/10/09 00:25:37;;;;;;;;;;;8.20;99.90;;;;;;3059110;19;19943;-71
2022/10/09 00:26:41;;;;;;;;;;;8.30;99.90;;;;;;3059284;19;19919;-71
2022/10/09 00:27:42;;;;;;;;;;;8.40;99.90;;;;;;3059196;19;19915;-71
2022/10/09 00:28:46;;;;;;;;;;;8.20;99.90;;;;;;3059279;19;20256;-71
2022/10/09 00:29:47;;;;;;;;;;;8.30;99.90;;;;;;3059110;19;19928;-71
2022/10/09 00:30:53;;;;;;;;;;;8.20;99.90;;;;;;3059245;19;19985;-71
2022/10/09 00:31:57;;;;;;;;;;;9.20;99.90;;;;;;3059007;19;19945;-71
2022/10/09 00:33:00;;;;;;;;;;;8.20;99.90;;;;;;3060528;19;19918;-71
2022/10/09 00:34:01;;;;;;;;;;;8.30;99.90;;;;;;3059051;19;19918;-71
2022/10/09 00:35:05;;;;;;;;;;;8.30;99.90;;;;;;3059123;19;19911;-71
2022/10/09 00:36:08;;;;;;;;;;;8.20;99.90;;;;;;3058497;19;19922;-71
2022/10/09 00:37:11;;;;;;;;;;;8.10;99.90;;;;;;3058994;19;19915;-71
2022/10/09 00:38:13;;;;;;;;;;;8.10;99.90;;;;;;3059049;19;19926;-71
2022/10/09 00:39:17;;;;;;;;;;;8.10;99.90;;;;;;3059193;19;20363;-70
2022/10/09 00:40:18;;;;;;;;;;;8.00;99.90;;;;;;3059009;19;20257;-71
2022/10/09 00:41:23;;;;;;;;;;;8.00;99.90;;;;;;3058054;19;19954;-71
2022/10/09 00:42:25;;;;;;;;;;;8.20;99.90;;;;;;3058408;19;19925;-71
2022/10/09 00:43:39;;;;;;;;;;;8.10;99.90;;;;;;3058471;19;19919;-71
2022/10/09 00:44:51;;;;;;;;;;;8.10;99.90;;;;;;3059033;19;20340;-71
2022/10/09 00:45:58;;;;;;;;;;;8.00;99.90;;;;;;3058910;19;20229;-71
2022/10/09 00:46:59;;;;;;;;;;;8.00;99.90;;;;;;3058944;19;20336;-71
2022/10/09 00:48:04;;;;;;;;;;;8.00;99.90;;;;;;3058921;19;19919;-71
2022/10/09 00:49:14;;;;;;;;;;;8.90;99.90;;;;;;3059149;19;19922;-71
2022/10/09 00:50:21;;;;;;;;;;;8.00;99.90;;;;;;3058862;19;19921;-71
2022/10/09 00:51:22;;;;;;;;;;;7.90;99.90;;;;;;3060934;19;19935;-71
2022/10/09 00:52:27;;;;;;;;;;;8.80;99.90;;;;;;3062098;19;19978;-70
2022/10/09 00:53:28;;;;;;;;;;;8.60;99.90;;;;;;3062345;19;19945;-71
2022/10/09 00:54:33;;;;;;;;;;;8.10;99.90;;;;;;3061814;19;19931;-70
2022/10/09 00:55:35;;;;;;;;;;;7.90;99.90;;;;;;3061961;19;19922;-71
2022/10/09 00:56:39;;;;;;;;;;;8.00;99.90;;;;;;3061821;19;19926;-71
2022/10/09 00:57:40;;;;;;;;;;;7.90;99.90;;;;;;3061890;19;19918;-71
2022/10/09 00:58:44;;;;;;;;;;;8.20;99.90;;;;;;3061847;19;19939;-71
2022/10/09 00:59:45;;;;;;;;;;;8.10;99.90;;;;;;3061908;19;20327;-71
2022/10/09 01:00:49;;;;;;;;;;;8.10;99.90;;;;;;3061805;19;19915;-71
2022/10/09 01:01:52;;;;;;;;;;;8.20;99.90;;;;;;3061875;19;20296;-71
2022/10/09 01:02:56;;;;;;;;;;;8.10;99.90;;;;;;3061837;19;19910;-71
2022/10/09 01:03:57;;;;;;;;;;;8.00;99.90;;;;;;3061886;19;19995;-71
2022/10/09 01:05:01;;;;;;;;;;;7.90;99.90;;;;;;3061786;19;19980;-71
2022/10/09 01:06:07;;;;;;;;;;;8.00;99.90;;;;;;3061908;19;19919;-71
2022/10/09 01:07:19;;;;;;;;;;;7.90;99.90;;;;;;3061784;19;19946;-71
2022/10/09 01:08:24;;;;;;;;;;;8.10;99.90;;;;;;3061775;19;19914;-71
2022/10/09 01:09:32;;;;;;;;;;;9.00;99.90;;;;;;3061830;19;19922;-70
2022/10/09 01:10:36;;;;;;;;;;;7.90;99.90;;;;;;3061743;19;20303;-70
2022/10/09 01:11:42;;;;;;;;;;;7.90;99.90;;;;;;3060633;19;19997;-69
2022/10/09 01:12:46;;;;;;;;;;;9.00;99.90;;;;;;3061653;19;19914;-70
2022/10/09 01:13:54;;;;;;;;;;;8.00;99.90;;;;;;3061340;19;19915;-70
2022/10/09 01:14:57;;;;;;;;;;;8.30;99.90;;;;;;3061737;19;20403;-70
2022/10/09 01:16:05;;;;;;;;;;;7.80;99.90;;;;;;3061292;19;19914;-70
2022/10/09 01:17:13;;;;;;;;;;;7.80;99.90;;;;;;3061867;19;19922;-70
2022/10/09 01:18:21;;;;;;;;;;;8.00;99.90;;;;;;3061685;19;19915;-70
2022/10/09 01:19:29;;;;;;;;;;;7.80;99.90;;;;;;3061536;19;20367;-70
2022/10/09 01:20:35;;;;;;;;;;;9.10;99.90;;;;;;3061881;19;20345;-70
2022/10/09 01:21:40;;;;;;;;;;;7.90;99.90;;;;;;3061630;19;19922;-70
2022/10/09 01:22:47;;;;;;;;;;;8.80;99.90;;;;;;3061815;19;19923;-70
2022/10/09 01:23:55;;;;;;;;;;;7.90;99.90;;;;;;3061429;19;20347;-70
2022/10/09 01:25:02;;;;;;;;;;;8.80;99.90;;;;;;3061802;19;20013;-70
2022/10/09 01:26:18;;;;;;;;;;;8.00;99.90;;;;;;3061435;19;19922;-69
2022/10/09 01:27:25;;;;;;;;;;;7.80;99.90;;;;;;3061462;19;20354;-70
2022/10/09 01:28:27;;;;;;;;;;;8.10;99.90;;;;;;3061612;19;19926;-70
2022/10/09 01:29:34;;;;;;;;;;;8.00;99.90;;;;;;3061794;19;19928;-70
2022/10/09 01:30:35;;;;;;;;;;;7.90;99.90;;;;;;3061425;19;20275;-70
2022/10/09 01:31:41;;;;;;;;;;;7.90;99.90;;;;;;3062740;19;20555;-70
2022/10/09 01:32:45;;;;;;;;;;;7.90;99.90;;;;;;3061636;19;19930;-70
2022/10/09 01:33:49;;;;;;;;;;;7.90;99.90;;;;;;3060568;19;20403;-70
2022/10/09 01:34:51;;;;;;;;;;;7.90;99.90;;;;;;3060955;19;20331;-70
2022/10/09 01:35:55;;;;;;;;;;;7.80;99.90;;;;;;3061330;19;19922;-70
2022/10/09 01:36:57;;;;;;;;;;;7.80;99.90;;;;;;3061709;19;19926;-69
2022/10/09 01:38:01;;;;;;;;;;;8.30;99.90;;;;;;3061209;19;19922;-70
2022/10/09 01:39:03;;;;;;;;;;;8.70;99.90;;;;;;3061485;19;19936;-70
2022/10/09 01:40:08;;;;;;;;;;;7.80;99.90;;;;;;3061425;19;19914;-70
2022/10/09 01:41:09;;;;;;;;;;;7.90;99.90;;;;;;3061380;19;19910;-70
2022/10/09 01:42:20;;;;;;;;;;;8.70;99.90;;;;;;3061190;19;19960;-70
2022/10/09 01:43:27;;;;;;;;;;;7.90;99.90;;;;;;3061038;19;19974;-70
2022/10/09 01:44:31;;;;;;;;;;;7.90;99.90;;;;;;3061152;19;20367;-70
2022/10/09 01:45:36;;;;;;;;;;;7.90;99.90;;;;;;3061474;19;19919;-70
2022/10/09 01:46:40;;;;;;;;;;;7.80;99.90;;;;;;3061022;19;19919;-70
2022/10/09 01:47:42;;;;;;;;;;;8.00;99.90;;;;;;3061352;19;19910;-70
2022/10/09 01:48:47;;;;;;;;;;;7.90;99.90;;;;;;3061309;19;19922;-70
2022/10/09 01:49:55;;;;;;;;;;;7.90;99.90;;;;;;3060615;19;19945;-70
2022/10/09 01:51:01;;;;;;;;;;;7.80;99.90;;;;;;3061247;19;19923;-70
2022/10/09 01:52:07;;;;;;;;;;;7.80;99.90;;;;;;3061446;19;19946;-70
2022/10/09 01:53:11;;;;;;;;;;;8.10;99.90;;;;;;3061373;19;19938;-70
2022/10/09 01:54:16;;;;;;;;;;;7.80;99.90;;;;;;3061547;19;19970;-70
2022/10/09 01:55:37;;;;;;;;;;;7.80;99.90;;;;;;3061255;19;19911;-70
2022/10/09 01:56:40;;;;;;;;;;;7.70;99.90;;;;;;3060277;19;20016;-70
2022/10/09 01:57:46;;;;;;;;;;;8.50;99.90;;;;;;3061156;19;19915;-70
2022/10/09 01:58:52;;;;;;;;;;;8.00;99.90;;;;;;3061282;19;19918;-69
2022/10/09 01:59:57;;;;;;;;;;;7.80;99.90;;;;;;3061369;19;19939;-70
2022/10/09 02:01:03;;;;;;;;;;;6.90;99.90;;;;;;3060979;19;19911;-70
2022/10/09 02:02:06;;;;;;;;;;;8.50;99.90;;;;;;3060127;19;19978;-70
2022/10/09 02:03:11;;;;;;;;;;;7.90;99.90;;;;;;3061040;19;19922;-70
2022/10/09 02:04:13;;;;;;;;;;;7.80;99.90;;;;;;3061372;19;19914;-70
2022/10/09 02:05:19;;;;;;;;;;;7.90;99.90;;;;;;3061078;19;19911;-70
2022/10/09 02:06:21;;;;;;;;;;;7.90;99.90;;;;;;3061155;19;19918;-71
2022/10/09 02:07:25;;;;;;;;;;;8.00;99.90;;;;;;3061085;19;19923;-72
2022/10/09 02:08:28;;;;;;;;;;;8.00;99.90;;;;;;3060915;19;19922;-69
2022/10/09 02:09:32;;;;;;;;;;;7.80;99.90;;;;;;3060992;19;20372;-70
2022/10/09 02:10:33;;;;;;;;;;;7.80;99.90;;;;;;3061106;19;19926;-69
2022/10/09 02:11:37;;;;;;;;;;;8.00;99.90;;;;;;3060269;19;19915;-70
2022/10/09 02:12:41;;;;;;;;;;;7.80;99.90;;;;;;3061193;19;20256;-70
2022/10/09 02:13:46;;;;;;;;;;;7.80;99.90;;;;;;3060663;19;19925;-70
2022/10/09 02:14:49;;;;;;;;;;;7.90;99.90;;;;;;3061152;19;19915;-70
2022/10/09 02:15:54;;;;;;;;;;;7.90;99.90;;;;;;3060863;19;19938;-70
2022/10/09 02:17:00;;;;;;;;;;;7.80;99.90;;;;;;3059971;19;20283;-70
2022/10/09 02:18:07;;;;;;;;;;;7.80;99.90;;;;;;3060765;19;19938;-70
2022/10/09 02:19:10;;;;;;;;;;;8.00;99.90;;;;;;3061130;19;19914;-70
2022/10/09 02:20:16;;;;;;;;;;;8.40;99.90;;;;;;3060721;19;19970;-70
2022/10/09 02:21:21;;;;;;;;;;;7.80;99.90;;;;;;3060889;19;20272;-70
2022/10/09 02:22:26;;;;;;;;;;;7.60;99.90;;;;;;3060691;19;19914;-70
2022/10/09 02:23:27;;;;;;;;;;;7.80;99.90;;;;;;3060824;19;19922;-70
2022/10/09 02:24:31;;;;;;;;;;;7.70;99.90;;;;;;3060657;19;19934;-69
2022/10/09 02:25:32;;;;;;;;;;;7.80;99.90;;;;;;3060993;19;19933;-70
2022/10/09 02:26:37;;;;;;;;;;;7.80;99.90;;;;;;3060692;19;19921;-70
2022/10/09 02:27:38;;;;;;;;;;;7.70;99.90;;;;;;3060916;19;19915;-71
2022/10/09 02:28:42;;;;;;;;;;;7.70;99.90;;;;;;3060871;19;19915;-70
2022/10/09 02:29:44;;;;;;;;;;;7.60;99.90;;;;;;3061054;19;19923;-70
2022/10/09 02:30:53;;;;;;;;;;;7.80;99.90;;;;;;3060565;19;19970;-69
2022/10/09 02:31:54;;;;;;;;;;;7.70;99.90;;;;;;3060740;19;19938;-70
2022/10/09 02:32:58;;;;;;;;;;;8.60;99.90;;;;;;3060714;19;20335;-70
2022/10/09 02:34:00;;;;;;;;;;;7.50;99.90;;;;;;3060610;19;19942;-70
2022/10/09 02:35:04;;;;;;;;;;;8.20;99.90;;;;;;3060652;19;19925;-70
2022/10/09 02:36:05;;;;;;;;;;;7.50;99.90;;;;;;3060879;19;19926;-70
2022/10/09 02:37:09;;;;;;;;;;;6.60;99.90;;;;;;3059649;19;19922;-70
2022/10/09 02:38:10;;;;;;;;;;;7.60;99.90;;;;;;3060665;19;20257;-70
2022/10/09 02:39:14;;;;;;;;;;;7.50;99.90;;;;;;3060529;19;19934;-70
2022/10/09 02:40:15;;;;;;;;;;;7.60;99.90;;;;;;3060506;19;19915;-70
2022/10/09 02:41:19;;;;;;;;;;;7.50;99.90;;;;;;3060517;19;19954;-70
2022/10/09 02:42:21;;;;;;;;;;;8.70;99.90;;;;;;3060566;19;19925;-70
2022/10/09 02:43:24;;;;;;;;;;;7.50;99.90;;;;;;3060147;19;19982;-70
2022/10/09 02:44:26;;;;;;;;;;;7.60;99.90;;;;;;3060760;19;19915;-70
2022/10/09 02:45:29;;;;;;;;;;;7.60;99.90;;;;;;3060447;19;19925;-70
2022/10/09 02:46:33;;;;;;;;;;;7.50;99.90;;;;;;3060540;19;20348;-70
2022/10/09 02:47:37;;;;;;;;;;;7.50;99.90;;;;;;3060401;19;19914;-70
2022/10/09 02:48:38;;;;;;;;;;;7.50;99.90;;;;;;3060404;19;19915;-70
2022/10/09 02:49:42;;;;;;;;;;;8.00;99.90;;;;;;3059814;19;19990;-70
2022/10/09 02:50:43;;;;;;;;;;;8.80;99.90;;;;;;3060419;19;20423;-70
2022/10/09 02:51:47;;;;;;;;;;;7.50;99.90;;;;;;3060308;19;19988;-71
2022/10/09 02:52:48;;;;;;;;;;;8.50;99.90;;;;;;3060512;19;19922;-70
2022/10/09 02:53:53;;;;;;;;;;;7.60;99.90;;;;;;3060345;19;20372;-71
2022/10/09 02:54:56;;;;;;;;;;;7.70;99.90;;;;;;3060426;19;19918;-70
2022/10/09 02:55:57;;;;;;;;;;;7.50;99.90;;;;;;3060358;19;19925;-70
2022/10/09 02:57:02;;;;;;;;;;;7.50;99.90;;;;;;3059894;19;19918;-70
2022/10/09 02:58:03;;;;;;;;;;;7.60;99.90;;;;;;3060349;19;20343;-70
2022/10/09 02:59:06;;;;;;;;;;;7.50;99.90;;;;;;3060600;19;20247;-70
2022/10/09 03:00:08;;;;;;;;;;;7.60;99.90;;;;;;3060582;19;19941;-70
2022/10/09 03:01:12;;;;;;;;;;;7.50;99.90;;;;;;3060429;19;19914;-70
2022/10/09 03:02:15;;;;;;;;;;;7.50;99.90;;;;;;3060105;19;19921;-70
2022/10/09 03:03:19;;;;;;;;;;;7.50;99.90;;;;;;3060333;19;19922;-70
2022/10/09 03:04:20;;;;;;;;;;;8.00;99.90;;;;;;3060240;19;19914;-70
2022/10/09 03:05:24;;;;;;;;;;;7.50;99.90;;;;;;3060055;19;19919;-71
2022/10/09 03:06:25;;;;;;;;;;;7.60;99.90;;;;;;3060276;19;19919;-70
2022/10/09 03:07:29;;;;;;;;;;;7.80;99.90;;;;;;3060101;19;20331;-70
2022/10/09 03:08:30;;;;;;;;;;;7.60;99.90;;;;;;3060180;19;19926;-70
2022/10/09 03:09:34;;;;;;;;;;;8.30;99.90;;;;;;3060167;19;19922;-70
2022/10/09 03:10:35;;;;;;;;;;;8.50;99.90;;;;;;3060489;19;19922;-70
2022/10/09 03:11:39;;;;;;;;;;;7.50;99.90;;;;;;3059469;19;19915;-71
2022/10/09 03:12:40;;;;;;;;;;;7.50;99.90;;;;;;3060386;19;19918;-71
2022/10/09 03:13:44;;;;;;;;;;;8.10;99.90;;;;;;3057740;19;20348;-70
2022/10/09 03:14:45;;;;;;;;;;;7.50;99.90;;;;;;3060217;19;19992;-70
2022/10/09 03:15:49;;;;;;;;;;;7.60;99.90;;;;;;3060158;19;19923;-71
2022/10/09 03:16:49;;;;;;;;;;;8.20;99.90;;;;;;3059720;19;19925;-71
2022/10/09 03:17:56;;;;;;;;;;;7.40;99.90;;;;;;3059972;19;19915;-71
2022/10/09 03:18:57;;;;;;;;;;;7.50;99.90;;;;;;3060131;19;20327;-70
2022/10/09 03:20:01;;;;;;;;;;;7.40;99.90;;;;;;3059846;19;20388;-70
2022/10/09 03:21:04;;;;;;;;;;;7.70;99.90;;;;;;3060239;19;19922;-70
2022/10/09 03:22:07;;;;;;;;;;;7.30;99.90;;;;;;3060055;19;19938;-70
2022/10/09 03:23:08;;;;;;;;;;;7.30;99.90;;;;;;3060060;19;19915;-70
2022/10/09 03:24:12;;;;;;;;;;;7.30;99.90;;;;;;3059829;19;19964;-71
2022/10/09 03:25:13;;;;;;;;;;;7.40;99.90;;;;;;3060038;19;19929;-70
2022/10/09 03:26:18;;;;;;;;;;;7.30;99.90;;;;;;3060007;19;19919;-70
2022/10/09 03:27:19;;;;;;;;;;;7.30;99.90;;;;;;3060009;19;19915;-71
2022/10/09 03:28:23;;;;;;;;;;;7.40;99.90;;;;;;3060183;19;19918;-70
2022/10/09 03:29:24;;;;;;;;;;;7.20;99.90;;;;;;3060158;19;19910;-70
2022/10/09 03:30:28;;;;;;;;;;;7.90;99.90;;;;;;3059906;19;19926;-70
2022/10/09 03:31:29;;;;;;;;;;;7.30;99.90;;;;;;3059875;19;19922;-70
2022/10/09 03:32:33;;;;;;;;;;;7.40;99.90;;;;;;3059753;19;19922;-70
2022/10/09 03:33:37;;;;;;;;;;;7.40;99.90;;;;;;3059828;19;19922;-70
2022/10/09 03:34:40;;;;;;;;;;;7.90;99.90;;;;;;3059810;19;20007;-70
2022/10/09 03:35:41;;;;;;;;;;;7.30;99.90;;;;;;3059939;19;19919;-70
2022/10/09 03:36:45;;;;;;;;;;;7.40;99.90;;;;;;3059507;19;19911;-70
2022/10/09 03:37:46;;;;;;;;;;;7.00;99.90;;;;;;3059731;19;19915;-70
2022/10/09 03:38:49;;;;;;;;;;;7.20;99.90;;;;;;3059666;19;19933;-70
2022/10/09 03:39:50;;;;;;;;;;;8.10;99.90;;;;;;3059688;19;19911;-70
2022/10/09 03:40:54;;;;;;;;;;;8.00;99.90;;;;;;3059688;19;19952;-70
2022/10/09 03:41:55;;;;;;;;;;;7.10;99.90;;;;;;3059822;19;19918;-70
2022/10/09 03:42:59;;;;;;;;;;;7.50;99.90;;;;;;3059301;19;19915;-70
2022/10/09 03:44:05;;;;;;;;;;;7.20;99.90;;;;;;3059709;19;20450;-70
2022/10/09 03:45:10;;;;;;;;;;;7.10;99.90;;;;;;3059766;19;19944;-70
2022/10/09 03:46:11;;;;;;;;;;;7.00;99.90;;;;;;3060032;19;19918;-70
2022/10/09 03:47:14;;;;;;;;;;;7.00;99.90;;;;;;3059487;19;20250;-71
2022/10/09 03:48:15;;;;;;;;;;;7.00;99.90;;;;;;3059655;19;19914;-70
2022/10/09 03:49:22;;;;;;;;;;;7.80;99.90;;;;;;3059163;19;20340;-70
2022/10/09 03:50:23;;;;;;;;;;;7.00;99.90;;;;;;3059849;19;19942;-71
2022/10/09 03:51:27;;;;;;;;;;;7.00;99.90;;;;;;3059510;19;19918;-70
2022/10/09 03:52:28;;;;;;;;;;;7.00;99.90;;;;;;3059870;19;19918;-70
2022/10/09 03:53:31;;;;;;;;;;;7.00;99.90;;;;;;3059634;19;19915;-70
2022/10/09 03:54:32;;;;;;;;;;;7.40;99.90;;;;;;3059665;19;20351;-70
2022/10/09 03:55:36;;;;;;;;;;;7.80;99.90;;;;;;3059493;19;19914;-70
2022/10/09 03:56:37;;;;;;;;;;;7.00;99.90;;;;;;3059562;19;19933;-70
2022/10/09 03:57:41;;;;;;;;;;;7.00;99.90;;;;;;3058676;19;19926;-71
2022/10/09 03:58:42;;;;;;;;;;;7.30;99.90;;;;;;3059738;19;19918;-71
2022/10/09 03:59:46;;;;;;;;;;;6.90;99.90;;;;;;3059513;19;20250;-71
2022/10/09 04:00:48;;;;;;;;;;;8.20;99.90;;;;;;3059655;19;19919;-71
2022/10/09 04:01:52;;;;;;;;;;;7.90;99.90;;;;;;3059275;19;19928;-71
2022/10/09 04:02:53;;;;;;;;;;;6.80;99.90;;;;;;3059663;19;19914;-71
2022/10/09 04:03:56;;;;;;;;;;;6.90;99.90;;;;;;3059297;19;19919;-71
2022/10/09 04:05:00;;;;;;;;;;;6.80;99.90;;;;;;3059703;19;19922;-71
2022/10/09 04:06:04;;;;;;;;;;;6.90;99.90;;;;;;3059531;19;19919;-71
2022/10/09 04:07:05;;;;;;;;;;;6.90;99.90;;;;;;3059467;19;20592;-71
2022/10/09 04:08:08;;;;;;;;;;;7.60;99.90;;;;;;3059217;19;20249;-71
2022/10/09 04:09:09;;;;;;;;;;;6.90;99.90;;;;;;3059554;19;19918;-71
2022/10/09 04:10:13;;;;;;;;;;;6.80;99.90;;;;;;3059236;19;20288;-71
2022/10/09 04:11:14;;;;;;;;;;;6.80;99.90;;;;;;3059286;19;20348;-71
2022/10/09 04:12:17;;;;;;;;;;;7.20;99.90;;;;;;3059377;19;19915;-71
2022/10/09 04:13:18;;;;;;;;;;;7.00;99.90;;;;;;3059221;19;19915;-71
2022/10/09 04:14:22;;;;;;;;;;;6.90;99.90;;;;;;3059250;19;20270;-71
2022/10/09 04:15:23;;;;;;;;;;;6.90;99.90;;;;;;3059425;19;20273;-71
2022/10/09 04:16:27;;;;;;;;;;;6.90;99.90;;;;;;3059161;19;19911;-71
2022/10/09 04:17:28;;;;;;;;;;;6.90;99.90;;;;;;3059115;19;19916;-71
2022/10/09 04:18:32;;;;;;;;;;;6.90;99.90;;;;;;3059325;19;19911;-71
2022/10/09 04:19:33;;;;;;;;;;;6.80;99.90;;;;;;3059489;19;20571;-71
2022/10/09 04:20:39;;;;;;;;;;;6.90;99.90;;;;;;3059083;19;20379;-71
2022/10/09 04:21:40;;;;;;;;;;;6.70;99.90;;;;;;3059153;19;19914;-71
2022/10/09 04:22:44;;;;;;;;;;;6.80;99.90;;;;;;3059205;19;19940;-71
2022/10/09 04:23:45;;;;;;;;;;;6.70;99.90;;;;;;3059360;19;19919;-70
2022/10/09 04:24:49;;;;;;;;;;;6.80;99.90;;;;;;3058365;19;19935;-71
2022/10/09 04:25:51;;;;;;;;;;;6.80;99.90;;;;;;3059431;19;19935;-71
2022/10/09 04:26:55;;;;;;;;;;;6.80;99.90;;;;;;3059520;19;19931;-71
2022/10/09 04:27:56;;;;;;;;;;;6.70;99.90;;;;;;3059382;19;19930;-71
2022/10/09 04:29:00;;;;;;;;;;;6.70;99.90;;;;;;3058320;19;20284;-71
2022/10/09 04:30:01;;;;;;;;;;;6.80;99.90;;;;;;3058645;19;19935;-71
2022/10/09 04:31:05;;;;;;;;;;;7.00;99.90;;;;;;3059062;19;20332;-71
2022/10/09 04:32:06;;;;;;;;;;;6.70;99.90;;;;;;3059245;19;19918;-71
2022/10/09 04:33:10;;;;;;;;;;;6.80;99.90;;;;;;3059144;19;19911;-70
2022/10/09 04:34:11;;;;;;;;;;;6.80;99.90;;;;;;3059049;19;20339;-71
2022/10/09 04:35:15;;;;;;;;;;;6.80;99.90;;;;;;3058912;19;19911;-71
2022/10/09 04:36:19;;;;;;;;;;;6.80;99.90;;;;;;3059251;19;19913;-71
2022/10/09 04:37:22;;;;;;;;;;;7.20;99.90;;;;;;3058606;19;19946;-71
2022/10/09 04:38:24;;;;;;;;;;;6.80;99.90;;;;;;3059038;19;19945;-71
2022/10/09 04:39:27;;;;;;;;;;;6.60;99.90;;;;;;3058995;19;20382;-71
2022/10/09 04:40:28;;;;;;;;;;;6.60;99.90;;;;;;3059198;19;20346;-71
2022/10/09 04:41:32;;;;;;;;;;;6.80;99.90;;;;;;3058988;19;19970;-71
2022/10/09 04:42:33;;;;;;;;;;;6.60;99.90;;;;;;3059286;19;19918;-71
2022/10/09 04:43:37;;;;;;;;;;;6.80;99.90;;;;;;3058488;19;19919;-71
2022/10/09 04:44:37;;;;;;;;;;;6.70;99.90;;;;;;3059017;19;19922;-71
2022/10/09 04:45:41;;;;;;;;;;;7.80;99.90;;;;;;3058911;19;19906;-71
2022/10/09 04:46:42;;;;;;;;;;;6.60;99.90;;;;;;3058971;19;19927;-71
2022/10/09 04:47:46;;;;;;;;;;;6.70;99.90;;;;;;3058817;19;19918;-71
2022/10/09 04:48:47;;;;;;;;;;;6.70;99.90;;;;;;3059186;19;19978;-71
2022/10/09 04:49:51;;;;;;;;;;;6.70;99.90;;;;;;3058338;19;19926;-71
2022/10/09 04:50:52;;;;;;;;;;;6.60;99.90;;;;;;3059134;19;20483;-71
2022/10/09 04:51:58;;;;;;;;;;;6.60;99.90;;;;;;3058883;19;19929;-71
2022/10/09 04:52:59;;;;;;;;;;;6.70;99.90;;;;;;3059132;19;19923;-71
2022/10/09 04:54:03;;;;;;;;;;;6.60;99.90;;;;;;3058819;19;19951;-71
2022/10/09 04:55:04;;;;;;;;;;;7.60;99.90;;;;;;3058824;19;19915;-71
2022/10/09 04:56:10;;;;;;;;;;;6.50;99.90;;;;;;3058684;19;20262;-71
2022/10/09 04:57:10;;;;;;;;;;;6.70;99.90;;;;;;3059000;19;19931;-71
2022/10/09 04:58:15;;;;;;;;;;;6.80;99.90;;;;;;3057887;19;19935;-71
2022/10/09 04:59:16;;;;;;;;;;;6.70;99.90;;;;;;3058922;19;19919;-71
2022/10/09 05:00:20;;;;;;;;;;;7.70;99.90;;;;;;3058634;19;19974;-71
2022/10/09 05:01:22;;;;;;;;;;;6.60;99.90;;;;;;3058827;19;19910;-71
2022/10/09 05:02:25;;;;;;;;;;;6.70;99.90;;;;;;3058596;19;19919;-71
2022/10/09 05:03:26;;;;;;;;;;;6.60;99.90;;;;;;3058976;19;19922;-71
2022/10/09 05:04:30;;;;;;;;;;;6.60;99.90;;;;;;3058724;19;19939;-71
2022/10/09 05:05:31;;;;;;;;;;;6.60;99.90;;;;;;3059089;19;19915;-71
2022/10/09 05:06:35;;;;;;;;;;;6.60;99.90;;;;;;3058823;19;19935;-71
2022/10/09 05:07:39;;;;;;;;;;;6.60;99.90;;;;;;3058842;19;19914;-71
2022/10/09 05:08:43;;;;;;;;;;;6.60;99.90;;;;;;3058508;19;19926;-71
2022/10/09 05:09:44;;;;;;;;;;;6.70;99.90;;;;;;3058863;19;19978;-71
2022/10/09 05:10:48;;;;;;;;;;;7.40;99.90;;;;;;3058353;19;19949;-71
2022/10/09 05:11:49;;;;;;;;;;;6.50;99.90;;;;;;3057963;19;19914;-71
2022/10/09 05:12:52;;;;;;;;;;;6.90;99.90;;;;;;3058107;19;19914;-71
2022/10/09 05:13:54;;;;;;;;;;;6.60;99.90;;;;;;3058683;19;19925;-71
2022/10/09 05:14:57;;;;;;;;;;;6.50;99.90;;;;;;3058692;19;19915;-71
2022/10/09 05:16:00;;;;;;;;;;;7.20;99.90;;;;;;3059050;19;19922;-71
2022/10/09 05:17:04;;;;;;;;;;;6.60;99.90;;;;;;3058692;19;20368;-71
2022/10/09 05:18:05;;;;;;;;;;;6.60;99.90;;;;;;3057952;19;20365;-71
2022/10/09 05:19:08;;;;;;;;;;;6.40;99.90;;;;;;3058522;19;19932;-71
2022/10/09 05:20:09;;;;;;;;;;;7.30;99.90;;;;;;3058711;19;20506;-71
2022/10/09 05:21:13;;;;;;;;;;;7.00;99.90;;;;;;3058352;19;19918;-71
2022/10/09 05:22:14;;;;;;;;;;;6.50;99.90;;;;;;3058789;19;19934;-71
2022/10/09 05:23:21;;;;;;;;;;;7.50;99.90;;;;;;3058483;19;19914;-71
2022/10/09 05:24:22;;;;;;;;;;;6.50;99.90;;;;;;3058678;19;20251;-71
2022/10/09 05:25:25;;;;;;;;;;;6.40;99.90;;;;;;3058834;19;19922;-71
2022/10/09 05:26:26;;;;;;;;;;;6.50;99.90;;;;;;3058710;19;20324;-71
2022/10/09 05:27:30;;;;;;;;;;;6.40;99.90;;;;;;3058295;19;19935;-71
2022/10/09 05:28:31;;;;;;;;;;;6.40;99.90;;;;;;3058517;19;19911;-71
2022/10/09 05:29:35;;;;;;;;;;;6.40;99.90;;;;;;3058393;19;19934;-72
2022/10/09 05:30:39;;;;;;;;;;;6.40;99.90;;;;;;3058778;19;19926;-71
2022/10/09 05:31:43;;;;;;;;;;;6.30;99.90;;;;;;3058335;19;19974;-71
2022/10/09 05:32:44;;;;;;;;;;;6.30;99.90;;;;;;3058617;19;19914;-70
2022/10/09 05:33:47;;;;;;;;;;;6.90;99.90;;;;;;3058425;19;19919;-71
2022/10/09 05:34:48;;;;;;;;;;;6.40;99.90;;;;;;3058456;19;19943;-71
2022/10/09 05:35:52;;;;;;;;;;;6.30;99.90;;;;;;3058386;19;19929;-71
2022/10/09 05:36:53;;;;;;;;;;;6.30;99.90;;;;;;3059051;19;19937;-71
2022/10/09 05:37:57;;;;;;;;;;;6.40;99.90;;;;;;3060519;19;19914;-71
2022/10/09 05:39:01;;;;;;;;;;;6.40;99.90;;;;;;3061629;19;19978;-71
2022/10/09 05:40:04;;;;;;;;;;;7.00;99.90;;;;;;3061371;19;19918;-71
2022/10/09 05:41:06;;;;;;;;;;;6.20;99.90;;;;;;3061680;19;19924;-71
2022/10/09 05:42:10;;;;;;;;;;;6.20;99.90;;;;;;3061384;19;19926;-71
2022/10/09 05:43:11;;;;;;;;;;;6.50;99.90;;;;;;3061049;19;19915;-71
2022/10/09 05:44:14;;;;;;;;;;;7.00;99.90;;;;;;3061281;19;19923;-71
2022/10/09 05:45:16;;;;;;;;;;;6.20;99.90;;;;;;3061616;19;19930;-71
2022/10/09 05:46:22;;;;;;;;;;;6.10;99.90;;;;;;3061300;19;19939;-71
2022/10/09 05:47:23;;;;;;;;;;;6.10;99.90;;;;;;3061288;19;20379;-70
2022/10/09 05:48:26;;;;;;;;;;;6.10;99.90;;;;;;3061302;19;19939;-71
2022/10/09 05:49:27;;;;;;;;;;;6.20;99.90;;;;;;3061249;19;19922;-71
2022/10/09 05:50:31;;;;;;;;;;;6.20;99.90;;;;;;3061216;19;19918;-71
2022/10/09 05:51:33;;;;;;;;;;;6.10;99.90;;;;;;3061354;19;20343;-71
2022/10/09 05:52:38;;;;;;;;;;;6.20;99.90;;;;;;3061061;19;20331;-71
2022/10/09 05:53:40;;;;;;;;;;;6.20;99.90;;;;;;3061299;19;19922;-71
2022/10/09 05:54:46;;;;;;;;;;;6.80;99.90;;;;;;3061043;19;19918;-71
2022/10/09 05:55:47;;;;;;;;;;;6.20;99.90;;;;;;3061132;19;19938;-71
2022/10/09 05:56:51;;;;;;;;;;;6.20;99.90;;;;;;3061167;19;19919;-71
2022/10/09 05:57:52;;;;;;;;;;;6.10;99.90;;;;;;3060684;19;19914;-71
2022/10/09 05:58:57;;;;;;;;;;;6.00;99.90;;;;;;3060928;19;19921;-71
2022/10/09 05:59:59;;;;;;;;;;;6.20;99.90;;;;;;3061398;19;19918;-72
2022/10/09 06:01:02;;;;;;;;;;;6.30;99.90;;;;;;3061007;19;19911;-72
2022/10/09 06:02:03;;;;;;;;;;;6.20;99.90;;;;;;3061108;19;20383;-72
2022/10/09 06:03:07;;;;;;;;;;;6.20;99.90;;;;;;3060943;19;20328;-71
2022/10/09 06:04:11;;;;;;;;;;;6.80;99.90;;;;;;3061265;19;20003;-71
2022/10/09 06:05:15;;;;;;;;;;;6.10;99.90;;;;;;3061073;19;19929;-71
2022/10/09 06:06:17;;;;;;;;;;;6.00;99.90;;;;;;3061202;19;20255;-71
2022/10/09 06:07:20;;;;;;;;;;;6.10;99.90;;;;;;3060896;19;20263;-71
2022/10/09 06:08:21;;;;;;;;;;;7.20;99.90;;;;;;3061217;19;20228;-71
2022/10/09 06:09:26;;;;;;;;;;;6.60;99.90;;;;;;3060890;19;19921;-71
2022/10/09 06:10:30;;;;;;;;;;;6.10;99.90;;;;;;3061148;19;19942;-71
2022/10/09 06:11:35;;;;;;;;;;;6.10;99.90;;;;;;3060149;19;20336;-71
2022/10/09 06:12:36;;;;;;;;;;;6.20;99.90;;;;;;3061156;19;19915;-71
2022/10/09 06:13:39;;;;;;;;;;;4.90;99.90;;;;;;3060643;19;19918;-71
2022/10/09 06:14:43;;;;;;;;;;;6.20;99.90;;;;;;3061084;19;19929;-71